createdAt,value
2022-11-12T00:00:03.593Z,3.4
2022-11-12T00:06:23.503Z,3.4
2022-11-12T00:12:46.514Z,3.3
2022-11-12T00:19:06.818Z,3.3
2022-11-12T00:25:29.706Z,4.2
2022-11-12T00:31:49.562Z,4.2
2022-11-12T00:38:12.596Z,5.4
2022-11-12T00:44:32.687Z,5.4
2022-11-12T00:50:55.600Z,7.2
2022-11-12T00:57:15.589Z,7.2
2022-11-12T01:03:38.553Z,4.4
2022-11-12T01:09:58.472Z,4.4
2022-11-12T01:16:21.637Z,5.5
2022-11-12T01:22:41.610Z,5.5
2022-11-12T01:29:04.704Z,4.6
2022-11-12T01:35:24.732Z,4.6
2022-11-12T01:41:47.584Z,6.1
2022-11-12T01:48:07.600Z,6.1
2022-11-12T01:54:30.703Z,2.5
2022-11-12T02:00:50.696Z,2.5
2022-11-12T02:07:13.616Z,6.6
2022-11-12T02:13:33.779Z,6.6
2022-11-12T02:19:56.612Z,6.9
2022-11-12T02:26:16.695Z,6.9
2022-11-12T02:32:39.689Z,4.6
2022-11-12T02:38:59.601Z,4.6
2022-11-12T02:45:22.609Z,6.6
2022-11-12T02:51:42.661Z,6.6
2022-11-12T02:58:05.470Z,4.4
2022-11-12T03:04:25.567Z,4.4
2022-11-12T03:10:48.772Z,5.3
2022-11-12T03:17:08.540Z,5.3
2022-11-12T03:23:31.757Z,4.7
2022-11-12T03:29:51.702Z,4.7
2022-11-12T03:36:14.608Z,3
2022-11-12T03:42:34.503Z,3
2022-11-12T03:48:57.844Z,6.9
2022-11-12T03:55:17.525Z,6.9
2022-11-12T04:01:47.917Z,7.8
2022-11-12T04:08:07.627Z,7.8
2022-11-12T04:24:53.265Z,6.6
2022-11-12T04:31:13.503Z,6.6
2022-11-12T04:37:36.507Z,9.3
2022-11-12T04:43:56.768Z,9.3
2022-11-12T04:50:19.611Z,9.3
2022-11-12T04:56:39.611Z,9.3
2022-11-12T05:03:02.770Z,3.4
2022-11-12T05:09:22.628Z,3.4
2022-11-12T05:15:45.584Z,4.4
2022-11-12T05:22:05.726Z,4.4
2022-11-12T05:28:28.949Z,5.5
2022-11-12T05:34:48.467Z,5.5
2022-11-12T05:41:14.867Z,4
2022-11-12T05:47:31.519Z,4
2022-11-12T05:53:54.474Z,5.3
2022-11-12T06:00:14.623Z,5.3
2022-11-12T06:06:37.642Z,4.7
2022-11-12T06:12:57.579Z,4.7
2022-11-12T06:19:20.693Z,5.7
2022-11-12T06:25:40.470Z,5.7
2022-11-12T06:32:03.523Z,4.1
2022-11-12T06:38:23.990Z,4.1
2022-11-12T06:44:46.633Z,3.9
2022-11-12T06:51:06.730Z,3.9
2022-11-12T06:57:29.696Z,4.3
2022-11-12T07:03:49.650Z,4.3
2022-11-12T07:10:12.579Z,7.8
2022-11-12T07:16:32.784Z,7.8
2022-11-12T07:22:55.601Z,6.5
2022-11-12T07:29:25.078Z,6.5
2022-11-12T07:35:38.640Z,5.8
2022-11-12T07:41:58.478Z,5.8
2022-11-12T07:48:21.603Z,4.9
2022-11-12T07:54:41.747Z,4.9
2022-11-12T08:01:04.696Z,6
2022-11-12T08:07:24.844Z,6
2022-11-12T08:13:47.783Z,3.6
2022-11-12T08:20:07.618Z,3.6
2022-11-12T08:26:30.733Z,5.6
2022-11-12T08:32:50.687Z,5.6
2022-11-12T08:39:13.631Z,6.2
2022-11-12T08:45:33.556Z,6.2
2022-11-12T08:51:56.613Z,4.7
2022-11-12T08:58:16.584Z,4.7
2022-11-12T09:04:39.577Z,5.2
2022-11-12T09:27:48.549Z,4.4
2022-11-12T09:34:06.487Z,4.4
2022-11-12T09:40:29.598Z,5
2022-11-12T09:46:49.705Z,5
2022-11-12T09:53:12.565Z,2.6
2022-11-12T09:59:32.548Z,2.6
2022-11-12T10:05:55.637Z,4.4
2022-11-12T10:12:15.543Z,4.4
2022-11-12T10:18:38.525Z,5.3
2022-11-12T10:24:58.654Z,5.3
2022-11-12T10:31:21.570Z,3.8
2022-11-12T10:37:41.505Z,3.8
2022-11-12T10:44:04.688Z,3.8
2022-11-12T10:50:24.544Z,3.8
2022-11-12T10:56:47.582Z,5.2
2022-11-12T11:03:07.685Z,5.2
2022-11-12T11:09:30.511Z,3.7
2022-11-12T11:15:51.510Z,3.7
2022-11-12T11:22:13.659Z,3
2022-11-12T11:28:33.513Z,3
2022-11-12T11:34:56.568Z,3.1
2022-11-12T11:41:16.610Z,3.1
2022-11-12T11:47:59.751Z,3.8
2022-11-12T11:53:59.530Z,3.8
2022-11-12T12:00:22.641Z,4.3
2022-11-12T12:06:42.573Z,4.3
2022-11-12T12:13:05.503Z,4.3
2022-11-12T12:19:25.687Z,4.3
2022-11-12T12:25:48.532Z,4.3
2022-11-12T12:32:08.489Z,4.3
2022-11-12T12:38:31.627Z,3.1
2022-11-12T12:44:51.513Z,3.1
2022-11-12T12:51:14.506Z,3
2022-11-12T12:57:34.615Z,3
2022-11-12T13:03:57.463Z,1.8
2022-11-12T13:10:17.499Z,1.8
2022-11-12T13:16:40.663Z,2.7
2022-11-12T13:23:00.463Z,2.7
2022-11-12T13:29:23.496Z,3.1
2022-11-12T13:35:43.601Z,3.1
2022-11-12T13:42:06.513Z,2.4
2022-11-12T13:48:26.777Z,2.4
2022-11-12T13:54:49.600Z,3
2022-11-12T14:01:09.529Z,3
2022-11-12T14:07:32.503Z,2.2
2022-11-12T14:13:52.629Z,2.2
2022-11-12T14:20:15.473Z,2.1
2022-11-12T14:26:35.480Z,2.1
2022-11-12T14:32:58.623Z,1.8
2022-11-12T14:39:18.482Z,1.8
2022-11-12T14:45:41.572Z,2.5
2022-11-12T14:52:01.619Z,2.5
2022-11-12T14:58:24.472Z,1.4
2022-11-12T15:04:44.535Z,1.4
2022-11-12T15:27:32.539Z,3.6
2022-11-12T15:33:52.498Z,3.6
2022-11-12T15:40:15.486Z,4.9
2022-11-12T15:46:35.848Z,4.9
2022-11-12T15:52:58.472Z,1.4
2022-11-12T15:59:18.576Z,1.4
2022-11-12T16:05:41.887Z,1.8
2022-11-12T16:12:01.556Z,1.8
2022-11-12T16:18:24.539Z,3
2022-11-12T16:24:44.650Z,3
2022-11-12T16:31:07.596Z,2.3
2022-11-12T16:37:27.551Z,2.3
2022-11-12T16:43:50.641Z,1.6
2022-11-12T16:50:10.590Z,1.6
2022-11-12T16:56:33.486Z,2
2022-11-12T17:02:53.785Z,2
2022-11-12T17:09:16.577Z,1.4
2022-11-12T17:15:36.527Z,1.4
2022-11-12T17:21:59.629Z,2.4
2022-11-12T17:28:19.740Z,2.4
2022-11-12T17:34:42.579Z,3.1
2022-11-12T17:41:02.670Z,3.1
2022-11-12T17:47:25.534Z,2.2
2022-11-12T17:53:45.497Z,2.2
2022-11-12T18:00:08.612Z,1.2
2022-11-12T18:06:28.588Z,1.2
2022-11-12T18:12:51.511Z,2.2
2022-11-12T18:19:11.693Z,2.2
2022-11-12T18:25:34.594Z,3.4
2022-11-12T18:31:54.509Z,3.4
2022-11-12T18:38:17.771Z,2.5
2022-11-12T18:44:37.564Z,2.5
2022-11-12T18:51:00.536Z,2.4
2022-11-12T18:57:21.060Z,2.4
2022-11-12T19:03:43.848Z,3.3
2022-11-12T19:10:04.038Z,3.3
2022-11-12T19:16:26.673Z,3.4
2022-11-12T19:22:46.606Z,3.4
2022-11-12T19:29:09.500Z,3
2022-11-12T19:35:29.835Z,3
2022-11-12T19:41:52.613Z,4.4
2022-11-12T19:48:12.544Z,4.4
2022-11-12T19:54:35.747Z,4.9
2022-11-12T20:00:55.871Z,4.9
2022-11-12T20:07:18.527Z,6.2
2022-11-12T20:13:38.785Z,6.2
2022-11-12T20:30:54.275Z,8.8
2022-11-12T20:37:14.466Z,8.8
2022-11-12T20:43:37.517Z,9.7
2022-11-12T20:49:57.626Z,9.7
2022-11-12T20:56:20.584Z,3.5
2022-11-12T21:02:40.495Z,3.5
2022-11-12T21:09:03.745Z,2.9
2022-11-12T21:15:23.519Z,2.9
2022-11-12T21:21:46.651Z,4.8
2022-11-12T21:28:06.665Z,4.8
2022-11-12T21:34:29.666Z,5.8
2022-11-12T21:40:49.536Z,5.8
2022-11-12T21:47:12.655Z,6.6
2022-11-12T21:53:32.566Z,6.6
2022-11-12T22:00:03.910Z,5.5
2022-11-12T22:06:15.709Z,5.5
2022-11-12T22:12:38.570Z,10.4
2022-11-12T22:18:58.553Z,10.4
2022-11-12T22:25:21.721Z,6
2022-11-12T22:31:41.509Z,6
2022-11-12T22:38:04.529Z,6.6
2022-11-12T22:44:24.733Z,6.6
2022-11-12T22:50:47.584Z,6.7
2022-11-12T22:57:07.570Z,6.7
2022-11-12T23:22:41.618Z,11.2
2022-11-12T23:29:01.457Z,11.2
2022-11-12T23:35:24.490Z,11.2
2022-11-12T23:41:44.571Z,11.2
2022-11-12T23:48:07.508Z,4.4
2022-11-12T23:54:27.659Z,4.4
